Time;durP1;ratioP1;P1;durP2;ratioP2;P2;SDS_P1;SDS_P2;PMS_P1;PMS_P2;Temp;Humidity;BMP_temperature;BMP_pressure;BME280_temperature;BME280_humidity;BME280_pressure;Samples;Min_cycle;Max_cycle;Signal;HPM_P1;HPM_P2
2023/09/10 00:00:25;;;;;;;9.35;2.72;;;25.20;99.90;;;;;;4166694;28;20179;-93
2023/09/10 00:02:25;;;;;;;8.18;3.35;;;25.20;99.90;;;;;;4150107;28;20200;-85
2023/09/10 00:04:26;;;;;;;6.28;2.63;;;25.20;99.90;;;;;;4166709;28;20259;-86
2023/09/10 00:06:27;;;;;;;3.60;2.40;;;25.20;99.90;;;;;;4150022;28;20239;-92
2023/09/10 00:08:28;;;;;;;4.93;2.30;;;25.20;99.90;;;;;;4167605;28;20176;-94
2023/09/10 00:10:29;;;;;;;6.45;3.03;;;25.20;99.90;;;;;;4150220;28;20543;-92
2023/09/10 00:12:29;;;;;;;3.70;2.53;;;25.20;99.90;;;;;;4166662;28;20199;-92
2023/09/10 00:14:30;;;;;;;4.25;2.70;;;25.20;99.90;;;;;;4166246;28;20807;-92
2023/09/10 00:16:31;;;;;;;4.45;2.72;;;25.20;99.90;;;;;;4166152;28;20216;-91
2023/09/10 00:18:32;;;;;;;6.97;3.45;;;25.10;99.90;;;;;;4150107;28;20180;-86
2023/09/10 00:20:32;;;;;;;6.80;2.60;;;25.00;99.90;;;;;;4149967;28;20173;-86
2023/09/10 00:22:34;;;;;;;5.50;3.13;;;25.00;99.90;;;;;;4149740;28;20591;-86
2023/09/10 00:24:35;;;;;;;4.05;2.90;;;24.90;99.90;;;;;;4166467;28;20222;-93
2023/09/10 00:26:36;;;;;;;5.65;2.35;;;24.90;99.90;;;;;;4149643;28;20284;-86
2023/09/10 00:28:36;;;;;;;6.75;2.85;;;24.90;99.90;;;;;;4149700;28;20255;-87
2023/09/10 00:30:37;;;;;;;11.00;3.30;;;24.90;99.90;;;;;;4150102;28;20184;-86
2023/09/10 00:32:38;;;;;;;9.82;3.40;;;24.80;99.90;;;;;;4167435;28;20678;-86
2023/09/10 00:34:38;;;;;;;5.18;3.17;;;24.70;99.90;;;;;;4149506;28;20204;-86
2023/09/10 00:36:39;;;;;;;12.82;3.42;;;24.60;99.90;;;;;;4166874;28;20207;-87
2023/09/10 00:38:40;;;;;;;8.88;2.47;;;24.60;99.90;;;;;;4165891;28;20183;-90
2023/09/10 00:40:41;;;;;;;3.88;2.33;;;24.60;99.90;;;;;;4166784;28;20570;-92
2023/09/10 00:42:42;;;;;;;5.57;2.72;;;24.70;99.90;;;;;;4165899;28;20262;-92
2023/09/10 00:44:42;;;;;;;4.22;2.70;;;24.70;99.90;;;;;;4149334;28;20223;-93
2023/09/10 00:46:44;;;;;;;3.75;2.70;;;24.80;99.90;;;;;;4149483;28;20624;-92
2023/09/10 00:48:45;;;;;;;4.15;2.55;;;24.80;99.90;;;;;;4167139;28;20184;-88
2023/09/10 00:50:46;;;;;;;3.47;2.40;;;24.90;99.90;;;;;;4149170;28;20185;-91
2023/09/10 00:52:51;;;;;;;4.63;2.65;;;24.80;99.90;;;;;;4149528;28;20234;-88
2023/09/10 00:54:52;;;;;;;5.57;3.00;;;24.70;99.90;;;;;;4165862;28;20266;-87
2023/09/10 00:56:53;;;;;;;5.93;3.13;;;24.60;99.90;;;;;;4165861;28;20192;-93
2023/09/10 00:58:54;;;;;;;4.22;2.67;;;24.50;99.90;;;;;;4165618;28;20195;-85
2023/09/10 01:00:54;;;;;;;4.13;2.70;;;24.40;99.90;;;;;;4149459;28;20177;-85
2023/09/10 01:02:58;;;;;;;5.25;2.60;;;24.30;99.90;;;;;;4148936;28;20706;-85
2023/09/10 01:04:59;;;;;;;5.13;2.70;;;24.20;99.90;;;;;;4149399;28;20183;-92
2023/09/10 01:07:01;;;;;;;5.95;3.00;;;24.30;99.90;;;;;;4164727;28;20187;-92
2023/09/10 01:09:04;;;;;;;4.82;2.72;;;24.30;99.90;;;;;;4148986;28;20191;-92
2023/09/10 01:11:10;;;;;;;3.38;2.38;;;24.40;99.90;;;;;;4149105;28;20238;-86
2023/09/10 01:13:20;;;;;;;4.75;2.97;;;24.40;99.90;;;;;;4149080;28;20193;-86
2023/09/10 01:15:46;;;;;;;6.90;2.10;;;24.40;99.90;;;;;;4149017;28;20704;-86
2023/09/10 01:18:02;;;;;;;3.38;2.65;;;24.40;99.90;;;;;;4149281;28;20191;-85
2023/09/10 01:20:28;;;;;;;6.20;2.40;;;24.40;99.90;;;;;;4165211;28;20192;-85
2023/09/10 01:22:39;;;;;;;3.25;1.90;;;24.30;99.90;;;;;;4148849;28;22342;-94
2023/09/10 01:24:43;;;;;;;4.07;2.13;;;24.40;99.90;;;;;;4165239;28;20192;-91
2023/09/10 01:26:57;;;;;;;5.10;2.33;;;24.50;99.90;;;;;;4164980;28;20206;-84
2023/09/10 01:28:58;;;;;;;3.38;2.00;;;24.50;99.90;;;;;;4165251;28;20191;-85
2023/09/10 01:30:58;;;;;;;4.25;2.00;;;24.50;99.90;;;;;;4149100;28;20215;-86
2023/09/10 01:33:18;;;;;;;4.38;1.88;;;24.50;99.90;;;;;;4165254;28;20208;-85
2023/09/10 01:36:13;;;;;;;5.68;1.90;;;24.50;99.90;;;;;;4165023;28;20218;-94
2023/09/10 01:38:23;;;;;;;4.00;2.25;;;24.50;99.90;;;;;;4099960;29;20249;-86
2023/09/10 01:40:31;;;;;;;3.67;2.15;;;24.50;99.90;;;;;;4150752;28;20661;-85
2023/09/10 01:42:35;;;;;;;4.25;2.20;;;24.50;99.90;;;;;;4148736;28;20709;-86
2023/09/10 01:44:37;;;;;;;4.63;2.15;;;24.50;99.90;;;;;;4148599;28;20543;-87
2023/09/10 01:46:39;;;;;;;3.72;1.95;;;24.40;99.90;;;;;;4148650;28;20181;-86
2023/09/10 01:48:40;;;;;;;5.45;2.03;;;24.40;99.90;;;;;;4165171;28;20602;-85
2023/09/10 01:50:41;;;;;;;4.32;2.13;;;24.40;99.90;;;;;;4164892;28;20192;-85
2023/09/10 01:52:42;;;;;;;5.88;2.63;;;24.40;99.90;;;;;;4148438;28;20690;-86
2023/09/10 01:54:43;;;;;;;5.22;2.25;;;24.30;99.90;;;;;;4148479;28;20181;-92
2023/09/10 01:56:44;;;;;;;3.05;1.95;;;24.30;99.90;;;;;;4148439;28;20213;-85
2023/09/10 01:58:44;;;;;;;5.00;2.20;;;24.30;99.90;;;;;;4148314;28;20643;-93
2023/09/10 02:00:45;;;;;;;4.60;2.17;;;24.20;99.90;;;;;;4164658;28;20585;-85
2023/09/10 02:02:47;;;;;;;4.78;1.98;;;24.20;99.90;;;;;;4148347;28;20287;-85
2023/09/10 02:04:48;;;;;;;4.88;1.90;;;24.20;99.90;;;;;;4148470;28;20665;-85
2023/09/10 02:06:48;;;;;;;5.85;2.45;;;24.20;99.90;;;;;;4148277;28;20181;-91
2023/09/10 02:08:50;;;;;;;7.00;2.58;;;24.20;99.90;;;;;;4148318;28;20208;-85
2023/09/10 02:10:50;;;;;;;5.07;2.33;;;24.20;99.90;;;;;;4164553;28;20250;-86
2023/09/10 02:12:51;;;;;;;3.40;2.17;;;24.10;99.90;;;;;;4164256;28;20215;-86
2023/09/10 02:14:52;;;;;;;3.05;2.10;;;24.20;99.90;;;;;;4147843;28;20742;-85
2023/09/10 02:16:52;;;;;;;4.15;2.15;;;24.10;99.90;;;;;;4164373;28;20187;-85
2023/09/10 02:18:53;;;;;;;3.17;1.80;;;24.10;99.90;;;;;;4164131;28;20184;-86
2023/09/10 02:20:54;;;;;;;4.88;2.38;;;24.10;99.90;;;;;;4147935;28;20247;-86
2023/09/10 02:22:55;;;;;;;7.72;2.08;;;24.10;99.90;;;;;;4164533;28;20635;-92
2023/09/10 02:24:55;;;;;;;3.42;1.90;;;24.10;99.90;;;;;;4148202;28;20243;-86
2023/09/10 02:26:56;;;;;;;9.52;2.53;;;24.00;99.90;;;;;;4164444;28;20186;-85
2023/09/10 02:28:57;;;;;;;3.58;1.70;;;23.90;99.90;;;;;;4148021;28;20235;-86
2023/09/10 02:31:03;;;;;;;6.45;2.50;;;24.00;99.90;;;;;;4164461;28;20190;-89
2023/09/10 02:33:06;;;;;;;4.03;2.15;;;23.90;99.90;;;;;;4164226;28;20278;-86
2023/09/10 02:35:07;;;;;;;2.47;1.77;;;23.90;99.90;;;;;;4164150;28;20220;-85
2023/09/10 02:37:08;;;;;;;3.78;2.20;;;23.90;99.90;;;;;;4164168;28;20692;-86
2023/09/10 02:39:09;;;;;;;7.28;2.40;;;23.90;99.90;;;;;;4147958;28;20180;-87
2023/09/10 02:41:10;;;;;;;4.63;2.00;;;23.80;99.90;;;;;;4147775;28;20283;-85
2023/09/10 02:43:11;;;;;;;3.53;1.80;;;23.80;99.90;;;;;;4147828;28;20583;-86
2023/09/10 02:45:13;;;;;;;7.72;2.42;;;23.80;99.90;;;;;;4164214;28;20179;-85
2023/09/10 02:47:14;;;;;;;6.80;2.13;;;23.60;99.90;;;;;;4164286;28;20673;-93
2023/09/10 02:49:17;;;;;;;6.32;2.35;;;23.60;99.90;;;;;;4164305;28;20180;-93
2023/09/10 02:51:17;;;;;;;4.13;2.13;;;23.60;99.90;;;;;;4147883;28;20243;-85
2023/09/10 02:53:18;;;;;;;3.75;1.80;;;23.60;99.90;;;;;;4164272;28;20593;-92
2023/09/10 02:55:22;;;;;;;4.22;2.22;;;23.60;99.90;;;;;;4164299;28;20649;-92
2023/09/10 02:57:22;;;;;;;4.20;2.47;;;23.60;99.90;;;;;;4148072;28;20224;-87
2023/09/10 02:59:26;;;;;;;3.45;1.92;;;23.50;99.90;;;;;;4164319;28;20180;-91
2023/09/10 03:01:27;;;;;;;8.07;2.00;;;23.60;99.90;;;;;;4147999;28;20263;-91
2023/09/10 03:03:32;;;;;;;3.95;2.03;;;23.50;99.90;;;;;;4164049;28;20279;-93
2023/09/10 03:05:34;;;;;;;4.78;2.30;;;23.40;99.90;;;;;;4147709;28;20505;-90
2023/09/10 03:07:35;;;;;;;3.42;2.08;;;23.50;99.90;;;;;;4164016;28;20184;-93
2023/09/10 03:09:36;;;;;;;4.85;2.20;;;23.50;99.90;;;;;;4147655;28;20195;-87
2023/09/10 03:11:38;;;;;;;4.38;2.17;;;23.50;99.90;;;;;;4165420;28;20199;-91
2023/09/10 03:13:39;;;;;;;6.40;2.85;;;23.50;99.90;;;;;;4147633;28;20196;-85
2023/09/10 03:15:39;;;;;;;4.88;2.03;;;23.50;99.90;;;;;;4147389;28;20221;-92
2023/09/10 03:17:40;;;;;;;4.57;2.60;;;23.50;99.90;;;;;;4163985;28;20177;-92
2023/09/10 03:19:41;;;;;;;2.70;2.08;;;23.50;99.90;;;;;;4148345;28;20184;-85
2023/09/10 03:21:42;;;;;;;5.15;2.70;;;23.50;99.90;;;;;;4164795;28;20176;-85
2023/09/10 03:23:43;;;;;;;4.13;2.25;;;23.50;99.90;;;;;;4168877;28;20208;-86
2023/09/10 03:25:44;;;;;;;4.28;2.40;;;23.50;99.90;;;;;;4172480;28;20165;-86
2023/09/10 03:27:45;;;;;;;8.63;2.30;;;23.50;99.90;;;;;;4171141;28;20199;-86
2023/09/10 03:29:45;;;;;;;3.67;1.90;;;23.50;99.90;;;;;;4165450;28;20176;-85
2023/09/10 03:31:46;;;;;;;5.05;2.55;;;23.50;99.90;;;;;;4150290;28;20184;-86
2023/09/10 03:33:48;;;;;;;3.63;2.25;;;23.50;99.90;;;;;;4166981;28;20199;-85
2023/09/10 03:35:49;;;;;;;6.18;2.25;;;23.50;99.90;;;;;;4150734;28;20764;-85
2023/09/10 03:37:50;;;;;;;5.93;2.40;;;23.40;99.90;;;;;;4150556;28;20217;-86
2023/09/10 03:39:51;;;;;;;4.80;2.03;;;23.40;99.90;;;;;;4150632;28;20235;-85
2023/09/10 03:41:52;;;;;;;5.75;2.70;;;23.40;99.90;;;;;;4167957;28;20188;-85
2023/09/10 03:43:55;;;;;;;3.35;2.47;;;23.30;99.90;;;;;;4166596;28;20705;-85
2023/09/10 03:45:57;;;;;;;7.07;2.53;;;23.30;99.90;;;;;;4166869;28;20181;-92
2023/09/10 03:47:57;;;;;;;5.03;2.90;;;23.30;99.90;;;;;;4166893;28;20620;-89
2023/09/10 03:49:58;;;;;;;5.95;2.30;;;23.20;99.90;;;;;;4150602;28;20279;-85
2023/09/10 03:51:59;;;;;;;5.15;2.42;;;23.30;99.90;;;;;;4150540;28;20230;-85
2023/09/10 03:54:00;;;;;;;4.43;2.50;;;23.30;99.90;;;;;;4150374;28;20181;-90
2023/09/10 03:56:01;;;;;;;5.43;2.47;;;23.30;99.90;;;;;;4166676;28;20215;-85
2023/09/10 03:58:02;;;;;;;3.67;2.10;;;23.20;99.90;;;;;;4150255;28;20185;-88
2023/09/10 04:00:04;;;;;;;5.80;2.58;;;23.30;99.90;;;;;;4150383;28;20269;-89
2023/09/10 04:02:12;;;;;;;6.63;2.20;;;23.30;99.90;;;;;;4166785;28;20175;-86
2023/09/10 04:04:13;;;;;;;4.20;2.15;;;23.30;99.90;;;;;;4166709;28;20172;-90
2023/09/10 04:06:14;;;;;;;3.60;2.30;;;23.40;99.90;;;;;;4150072;28;20299;-85
2023/09/10 04:08:15;;;;;;;4.15;2.08;;;23.30;99.90;;;;;;4167908;28;20180;-86
2023/09/10 04:10:15;;;;;;;4.15;2.28;;;23.30;99.90;;;;;;4167579;28;20306;-86
2023/09/10 04:12:16;;;;;;;7.97;2.58;;;23.30;99.90;;;;;;4166189;28;20249;-86
2023/09/10 04:14:17;;;;;;;4.00;2.25;;;23.30;99.90;;;;;;4150059;28;20173;-84
2023/09/10 04:16:18;;;;;;;3.60;2.03;;;23.30;99.90;;;;;;4150329;28;20227;-86
2023/09/10 04:18:19;;;;;;;3.63;2.00;;;23.30;99.90;;;;;;4150024;28;20260;-86
2023/09/10 04:20:21;;;;;;;2.72;1.83;;;23.30;99.90;;;;;;4150011;28;20185;-85
2023/09/10 04:22:21;;;;;;;4.53;2.17;;;23.30;99.90;;;;;;4150084;28;20200;-86
2023/09/10 04:24:23;;;;;;;2.92;1.88;;;23.30;99.90;;;;;;4166362;28;20658;-85
2023/09/10 04:26:24;;;;;;;5.90;2.33;;;23.30;99.90;;;;;;4149948;28;20173;-86
2023/09/10 04:28:25;;;;;;;6.50;2.08;;;23.20;99.90;;;;;;4166227;28;20184;-85
2023/09/10 04:30:25;;;;;;;4.78;1.92;;;23.20;99.90;;;;;;4166416;28;20570;-86
2023/09/10 04:32:26;;;;;;;2.53;1.75;;;23.10;99.90;;;;;;4166006;28;20207;-85
2023/09/10 04:34:27;;;;;;;4.15;2.15;;;23.10;99.90;;;;;;4149393;28;20193;-86
2023/09/10 04:36:28;;;;;;;6.25;2.42;;;23.10;99.90;;;;;;4149646;28;20224;-86
2023/09/10 04:38:29;;;;;;;2.25;1.42;;;22.90;99.90;;;;;;4149731;28;20268;-93
2023/09/10 04:40:31;;;;;;;5.13;1.90;;;22.90;99.90;;;;;;4165932;28;20637;-86
2023/09/10 04:42:32;;;;;;;5.75;2.80;;;23.00;99.90;;;;;;4149309;28;20201;-86
2023/09/10 04:44:34;;;;;;;5.10;2.38;;;23.10;99.90;;;;;;4166635;28;20178;-90
2023/09/10 04:46:35;;;;;;;11.00;2.47;;;23.00;99.90;;;;;;4149275;28;20584;-90
2023/09/10 04:48:36;;;;;;;2.65;1.85;;;22.90;99.90;;;;;;4165423;28;20179;-90
2023/09/10 04:50:36;;;;;;;3.95;2.28;;;23.00;99.90;;;;;;4165504;28;20767;-86
2023/09/10 04:52:37;;;;;;;3.10;1.70;;;23.00;99.90;;;;;;4149367;28;20222;-86
2023/09/10 04:54:38;;;;;;;3.53;2.15;;;23.00;99.90;;;;;;4166163;28;20175;-90
2023/09/10 04:56:39;;;;;;;3.05;1.80;;;23.00;99.90;;;;;;4166225;28;20270;-89
2023/09/10 04:58:39;;;;;;;4.10;1.73;;;23.00;99.90;;;;;;4149694;28;20661;-89
2023/09/10 05:00:40;;;;;;;7.28;2.00;;;23.00;99.90;;;;;;4149759;28;20343;-89
2023/09/10 05:02:41;;;;;;;3.90;2.00;;;23.00;99.90;;;;;;4149484;28;20201;-93
2023/09/10 05:04:42;;;;;;;3.75;2.45;;;23.00;99.90;;;;;;4149678;28;20239;-89
2023/09/10 05:06:43;;;;;;;3.05;2.00;;;23.00;99.90;;;;;;4149684;28;20276;-93
2023/09/10 05:08:45;;;;;;;4.70;1.50;;;23.00;99.90;;;;;;4149748;28;20647;-92
2023/09/10 05:10:48;;;;;;;3.50;1.77;;;22.90;99.90;;;;;;4165959;28;20180;-89
2023/09/10 05:12:52;;;;;;;4.97;2.40;;;22.90;99.90;;;;;;4149214;28;20200;-89
2023/09/10 05:14:53;;;;;;;3.85;2.30;;;23.00;99.90;;;;;;4149248;28;20243;-89
2023/09/10 05:16:54;;;;;;;3.50;2.22;;;22.90;99.90;;;;;;4149527;28;20184;-88
2023/09/10 05:18:54;;;;;;;3.60;1.85;;;23.00;99.90;;;;;;4149348;28;20701;-89
2023/09/10 05:20:55;;;;;;;6.47;2.60;;;23.00;99.90;;;;;;4149347;28;20185;-93
2023/09/10 05:22:58;;;;;;;3.75;2.00;;;23.00;99.90;;;;;;4165588;28;20200;-89
2023/09/10 05:24:59;;;;;;;2.90;1.88;;;22.90;99.90;;;;;;4165678;28;20188;-89
2023/09/10 05:26:59;;;;;;;5.18;2.25;;;23.00;99.90;;;;;;4166048;28;20635;-88
2023/09/10 05:29:00;;;;;;;4.22;2.08;;;23.00;99.90;;;;;;4149482;28;20181;-88
2023/09/10 05:31:04;;;;;;;6.97;2.47;;;23.00;99.90;;;;;;4165663;28;20235;-93
2023/09/10 05:33:06;;;;;;;9.05;2.80;;;23.00;99.90;;;;;;4149139;28;20268;-89
2023/09/10 05:35:08;;;;;;;4.70;2.40;;;23.00;99.90;;;;;;4165470;28;20219;-89
2023/09/10 05:37:09;;;;;;;5.95;2.38;;;23.00;99.90;;;;;;4149065;28;20189;-92
2023/09/10 05:39:10;;;;;;;4.10;2.13;;;23.10;99.90;;;;;;4149021;28;20177;-89
2023/09/10 05:41:11;;;;;;;5.28;2.38;;;23.10;99.90;;;;;;4149021;28;20211;-89
2023/09/10 05:43:12;;;;;;;4.97;2.10;;;23.10;99.90;;;;;;4148901;28;20185;-92
2023/09/10 05:45:12;;;;;;;2.78;1.90;;;23.20;99.90;;;;;;4165261;28;20283;-91
2023/09/10 05:47:13;;;;;;;3.60;2.05;;;23.10;99.90;;;;;;4165371;28;20184;-89
2023/09/10 05:49:14;;;;;;;3.03;1.85;;;23.10;99.90;;;;;;4149112;28;20183;-89
2023/09/10 05:51:16;;;;;;;7.18;2.65;;;23.10;99.90;;;;;;4165527;28;20186;-91
2023/09/10 05:53:16;;;;;;;3.40;1.88;;;23.10;99.90;;;;;;4164597;28;20777;-88
2023/09/10 05:55:17;;;;;;;4.95;2.10;;;23.20;99.90;;;;;;4148804;28;20232;-93
2023/09/10 05:57:18;;;;;;;3.72;1.90;;;23.30;99.90;;;;;;4148704;28;20203;-93
2023/09/10 05:59:19;;;;;;;4.32;2.10;;;23.40;99.90;;;;;;4165043;28;20581;-95
2023/09/10 06:01:20;;;;;;;3.80;2.60;;;23.50;99.90;;;;;;4165215;28;20185;-94
2023/09/10 06:03:21;;;;;;;2.63;1.88;;;23.60;99.90;;;;;;4148759;28;20251;-92
2023/09/10 06:05:22;;;;;;;4.95;2.30;;;23.60;99.90;;;;;;4149028;28;20177;-91
2023/09/10 06:07:22;;;;;;;4.28;2.50;;;23.70;99.90;;;;;;4148810;28;20176;-90
2023/09/10 06:09:23;;;;;;;4.45;2.40;;;23.70;99.90;;;;;;4165300;28;20207;-95
2023/09/10 06:11:24;;;;;;;7.85;2.15;;;23.80;99.90;;;;;;4164903;28;20167;-88
2023/09/10 06:13:25;;;;;;;4.38;2.00;;;23.80;99.90;;;;;;4148576;28;20197;-93
2023/09/10 06:15:27;;;;;;;3.38;2.17;;;23.90;99.90;;;;;;4148373;28;20208;-93
2023/09/10 06:17:28;;;;;;;3.63;2.05;;;24.00;99.90;;;;;;4164983;28;20199;-94
2023/09/10 06:19:29;;;;;;;3.85;2.53;;;24.10;99.90;;;;;;4164948;28;20175;-95
2023/09/10 06:21:31;;;;;;;5.32;2.20;;;24.10;99.90;;;;;;4148620;28;20192;-89
2023/09/10 06:23:32;;;;;;;4.47;1.55;;;24.10;99.90;;;;;;4148621;28;20279;-95
2023/09/10 06:25:33;;;;;;;3.10;2.08;;;24.20;99.90;;;;;;4148544;28;20233;-95
2023/09/10 06:27:35;;;;;;;2.38;2.13;;;24.30;99.90;;;;;;4164684;28;20195;-94
2023/09/10 06:29:36;;;;;;;4.65;2.00;;;24.30;99.90;;;;;;4148583;28;20550;-89
2023/09/10 06:31:37;;;;;;;3.45;1.92;;;24.30;99.90;;;;;;4165151;28;20208;-89
2023/09/10 06:33:38;;;;;;;2.90;1.92;;;24.40;99.90;;;;;;4148653;28;20212;-93
2023/09/10 06:35:39;;;;;;;4.68;2.10;;;24.50;99.90;;;;;;4165318;28;20346;-93
2023/09/10 06:37:40;;;;;;;8.00;2.35;;;24.70;99.90;;;;;;4165152;28;20176;-88
2023/09/10 06:39:41;;;;;;;3.22;1.95;;;24.80;99.90;;;;;;4149038;28;20193;-89
2023/09/10 06:41:42;;;;;;;2.92;2.10;;;24.90;99.90;;;;;;4164808;28;20704;-93
2023/09/10 06:43:43;;;;;;;4.22;2.03;;;25.00;99.90;;;;;;4148246;28;20201;-88
2023/09/10 06:45:51;;;;;;;4.82;2.40;;;25.10;99.90;;;;;;4151515;28;20576;-92
2023/09/10 06:47:51;;;;;;;5.82;2.33;;;25.10;99.90;;;;;;4153479;28;20195;-94
2023/09/10 06:49:52;;;;;;;4.53;2.05;;;25.20;99.90;;;;;;4153713;28;20567;-93
2023/09/10 06:51:53;;;;;;;3.70;1.98;;;25.20;99.90;;;;;;4153893;28;20181;-90
2023/09/10 06:53:54;;;;;;;7.85;2.33;;;25.30;99.90;;;;;;4155556;28;20185;-92
2023/09/10 06:55:56;;;;;;;2.75;1.80;;;25.30;99.90;;;;;;4154597;28;20217;-92
2023/09/10 06:57:57;;;;;;;2.85;2.03;;;25.50;99.90;;;;;;4154558;28;20185;-89
2023/09/10 06:59:58;;;;;;;2.78;2.22;;;25.80;99.90;;;;;;4172674;28;20179;-89
2023/09/10 07:01:59;;;;;;;3.55;1.90;;;26.00;99.90;;;;;;4149180;28;20185;-88
2023/09/10 07:04:00;;;;;;;5.68;1.95;;;26.20;99.90;;;;;;4148329;28;20235;-94
2023/09/10 07:06:05;;;;;;;3.88;2.03;;;26.50;99.90;;;;;;4167488;28;20179;-89
2023/09/10 07:08:07;;;;;;;3.47;2.00;;;26.70;99.90;;;;;;4151477;28;20575;-89
2023/09/10 07:10:08;;;;;;;4.10;2.55;;;27.00;99.90;;;;;;4151653;28;20188;-89
2023/09/10 07:12:09;;;;;;;4.35;1.75;;;27.40;99.90;;;;;;4168108;28;20176;-88
2023/09/10 07:14:10;;;;;;;3.88;2.13;;;28.00;99.90;;;;;;4151741;28;20549;-90
2023/09/10 07:16:10;;;;;;;2.28;1.60;;;28.40;99.90;;;;;;4151486;28;20212;-95
2023/09/10 07:18:11;;;;;;;6.18;2.72;;;28.60;99.90;;;;;;4151671;28;20195;-89
2023/09/10 07:20:12;;;;;;;3.45;2.33;;;28.30;99.90;;;;;;4151445;28;20199;-89
2023/09/10 07:22:13;;;;;;;3.65;1.85;;;28.30;99.90;;;;;;4167449;28;20183;-95
2023/09/10 07:24:15;;;;;;;4.93;2.10;;;28.30;99.90;;;;;;4151021;28;20212;-88
2023/09/10 07:26:16;;;;;;;7.07;2.03;;;28.40;99.90;;;;;;4151457;28;20189;-88
2023/09/10 07:28:17;;;;;;;3.78;1.70;;;28.90;99.90;;;;;;4151300;28;20173;-89
2023/09/10 07:30:17;;;;;;;4.68;2.13;;;29.60;99.90;;;;;;4151323;28;20184;-93
2023/09/10 07:32:18;;;;;;;2.30;1.92;;;30.40;99.90;;;;;;4151136;28;20177;-96
2023/09/10 07:34:21;;;;;;;2.90;2.03;;;31.20;99.90;;;;;;4151155;28;20192;-93
2023/09/10 07:36:22;;;;;;;6.50;1.90;;;31.80;99.90;;;;;;4151050;28;20210;-95
2023/09/10 07:38:22;;;;;;;9.50;2.10;;;32.20;99.90;;;;;;4167777;28;20271;-88
2023/09/10 07:40:23;;;;;;;7.40;2.78;;;33.20;99.90;;;;;;4153246;28;20235;-94
2023/09/10 07:42:24;;;;;;;5.90;2.22;;;33.00;99.90;;;;;;4153210;28;20200;-95
2023/09/10 07:44:25;;;;;;;3.25;2.22;;;32.60;99.90;;;;;;4153019;28;20177;-89
2023/09/10 07:46:25;;;;;;;3.90;2.22;;;32.70;99.90;;;;;;4151670;28;20188;-89
2023/09/10 07:48:26;;;;;;;3.15;2.10;;;33.30;99.90;;;;;;4155118;28;20271;-89
2023/09/10 07:50:31;;;;;;;5.40;2.47;;;33.40;99.90;;;;;;4159037;28;20188;-92
2023/09/10 07:52:31;;;;;;;3.35;2.20;;;33.80;99.90;;;;;;4161809;28;20181;-89
2023/09/10 07:54:35;;;;;;;3.22;2.25;;;33.60;99.90;;;;;;4184436;28;20203;-89
2023/09/10 07:56:36;;;;;;;3.17;2.00;;;34.20;99.90;;;;;;4166950;28;20228;-88
2023/09/10 07:58:37;;;;;;;4.35;2.10;;;34.10;99.90;;;;;;4165581;28;20180;-96
2023/09/10 08:00:37;;;;;;;4.07;2.30;;;34.80;99.90;;;;;;4168576;28;20175;-89
2023/09/10 08:02:38;;;;;;;2.38;2.03;;;35.30;99.90;;;;;;4169283;28;20719;-89
2023/09/10 08:04:39;;;;;;;3.50;1.98;;;35.70;99.90;;;;;;4168893;28;20176;-95
2023/09/10 08:06:40;;;;;;;6.25;2.38;;;35.70;99.90;;;;;;4151536;28;20283;-95
2023/09/10 08:08:41;;;;;;;6.22;2.35;;;35.70;99.90;;;;;;4151475;28;20176;-95
2023/09/10 08:10:44;;;;;;;2.85;2.00;;;36.00;99.90;;;;;;4153215;28;20185;-94
2023/09/10 08:12:44;;;;;;;15.95;2.55;;;36.50;99.90;;;;;;4152914;28;20584;-96
2023/09/10 08:14:45;;;;;;;4.82;2.28;;;36.40;99.90;;;;;;4168352;28;20183;-90
2023/09/10 08:16:46;;;;;;;4.15;2.33;;;35.70;99.90;;;;;;4150670;28;20216;-93
2023/09/10 08:18:47;;;;;;;4.28;2.30;;;35.80;99.90;;;;;;4153161;28;20574;-89
2023/09/10 08:20:48;;;;;;;6.38;2.40;;;35.50;99.90;;;;;;4152537;28;20180;-92
2023/09/10 08:22:49;;;;;;;5.05;2.38;;;35.60;99.90;;;;;;4156602;28;20195;-94
2023/09/10 08:24:53;;;;;;;2.55;2.00;;;34.90;99.90;;;;;;4152772;28;20172;-89
2023/09/10 08:26:54;;;;;;;4.72;2.67;;;34.50;99.90;;;;;;4150905;28;20188;-94
2023/09/10 08:28:54;;;;;;;3.75;2.00;;;34.60;99.90;;;;;;4150703;28;20173;-89
2023/09/10 08:30:55;;;;;;;4.15;2.00;;;34.90;99.90;;;;;;4166732;28;20246;-90
2023/09/10 08:32:56;;;;;;;2.33;1.88;;;35.10;99.90;;;;;;4150041;28;20204;-90
2023/09/10 08:34:57;;;;;;;4.20;2.20;;;35.30;99.90;;;;;;4150332;28;20218;-92
2023/09/10 08:36:58;;;;;;;3.88;1.77;;;35.90;99.90;;;;;;4166755;28;20735;-89
2023/09/10 08:38:58;;;;;;;2.30;1.67;;;36.40;99.90;;;;;;4150351;28;20184;-95
2023/09/10 08:40:59;;;;;;;4.63;2.20;;;36.50;99.90;;;;;;4150042;28;20200;-91
2023/09/10 08:43:10;;;;;;;2.75;2.00;;;36.70;99.90;;;;;;4150247;28;20679;-89
2023/09/10 08:45:11;;;;;;;3.40;2.17;;;36.90;99.90;;;;;;4150062;28;20184;-89
2023/09/10 08:47:16;;;;;;;10.90;2.00;;;37.20;99.90;;;;;;4166634;28;20199;-95
2023/09/10 08:49:18;;;;;;;4.30;2.22;;;37.10;99.90;;;;;;4150574;28;20180;-90
2023/09/10 08:51:20;;;;;;;6.22;2.17;;;37.10;99.90;;;;;;4150090;28;20176;-94
2023/09/10 08:53:22;;;;;;;2.55;1.60;;;37.20;99.90;;;;;;4150251;28;20258;-93
2023/09/10 08:55:25;;;;;;;2.20;1.80;;;37.20;99.90;;;;;;4150258;28;20338;-90
2023/09/10 08:57:29;;;;;;;4.00;2.50;;;37.20;99.90;;;;;;4150005;28;20187;-89
2023/09/10 08:59:30;;;;;;;6.25;2.08;;;37.10;99.90;;;;;;4149889;28;20188;-89
2023/09/10 09:01:31;;;;;;;3.75;2.00;;;37.00;99.90;;;;;;4149927;28;20177;-89
2023/09/10 09:03:32;;;;;;;5.70;2.22;;;36.60;99.90;;;;;;4166079;28;20203;-93
2023/09/10 09:05:35;;;;;;;6.10;1.92;;;37.20;99.90;;;;;;4149901;28;20180;-89
2023/09/10 09:07:51;;;;;;;3.78;2.17;;;37.50;99.90;;;;;;4149499;28;20571;-90
2023/09/10 09:09:58;;;;;;;3.55;2.05;;;37.50;99.90;;;;;;4149500;28;20172;-89
2023/09/10 09:12:02;;;;;;;3.78;2.38;;;37.60;99.90;;;;;;4165929;28;20187;-93
2023/09/10 09:14:07;;;;;;;4.22;1.90;;;38.10;99.90;;;;;;4149335;28;20184;-91
2023/09/10 09:16:09;;;;;;;3.45;2.00;;;37.30;99.90;;;;;;4165986;28;20376;-94
2023/09/10 09:18:16;;;;;;;11.10;2.83;;;35.80;99.90;;;;;;4149671;28;20641;-89
2023/09/10 09:20:21;;;;;;;4.68;2.30;;;36.20;99.90;;;;;;4149901;28;20231;-88
2023/09/10 09:22:24;;;;;;;4.68;2.13;;;36.10;99.90;;;;;;4149485;28;20200;-88
2023/09/10 09:24:25;;;;;;;6.28;2.25;;;35.50;99.90;;;;;;4149031;28;20188;-89
2023/09/10 09:26:29;;;;;;;6.10;2.70;;;35.50;99.90;;;;;;4165458;28;20331;-90
2023/09/10 09:28:31;;;;;;;5.30;2.42;;;35.50;99.90;;;;;;4148336;28;20188;-90
2023/09/10 09:30:32;;;;;;;5.18;2.97;;;35.90;99.90;;;;;;4149377;28;20184;-89
2023/09/10 09:32:37;;;;;;;6.93;2.30;;;36.60;99.90;;;;;;4132901;28;20209;-91
2023/09/10 09:34:38;;;;;;;3.67;2.35;;;36.80;99.90;;;;;;4149108;28;20191;-90
2023/09/10 09:36:39;;;;;;;5.40;2.10;;;37.10;99.90;;;;;;4148959;28;20232;-89
2023/09/10 09:38:46;;;;;;;5.35;2.55;;;36.80;99.90;;;;;;4133330;28;20591;-89
2023/09/10 09:40:47;;;;;;;2.83;2.20;;;35.60;99.90;;;;;;4131122;28;20221;-89
2023/09/10 09:42:48;;;;;;;2.85;1.95;;;35.90;99.90;;;;;;4132611;28;20200;-88
2023/09/10 09:44:49;;;;;;;5.28;2.83;;;36.40;99.90;;;;;;4132422;28;20189;-90
2023/09/10 09:46:55;;;;;;;3.25;1.98;;;36.30;99.90;;;;;;4150101;28;20524;-90
2023/09/10 09:48:56;;;;;;;4.97;2.28;;;35.80;99.90;;;;;;4134013;28;20180;-90
2023/09/10 09:50:57;;;;;;;3.88;2.15;;;35.70;99.90;;;;;;4148328;28;20667;-90
2023/09/10 09:52:58;;;;;;;4.20;2.58;;;35.70;99.90;;;;;;4148655;28;20205;-90
2023/09/10 09:54:59;;;;;;;6.78;2.40;;;35.40;99.90;;;;;;4153735;28;20207;-91
2023/09/10 09:57:02;;;;;;;3.17;2.17;;;35.10;99.90;;;;;;4148905;28;20220;-93
2023/09/10 09:59:03;;;;;;;3.63;2.38;;;35.10;99.90;;;;;;4146916;28;20567;-91
2023/09/10 10:01:03;;;;;;;4.97;2.60;;;35.30;99.90;;;;;;4148277;28;20198;-94
2023/09/10 10:03:05;;;;;;;4.30;2.15;;;35.20;99.90;;;;;;4148523;28;20231;-95
2023/09/10 10:05:07;;;;;;;7.30;1.90;;;35.40;99.90;;;;;;4148639;28;20180;-90
2023/09/10 10:07:09;;;;;;;3.50;2.05;;;35.10;99.90;;;;;;4132355;28;20181;-94
2023/09/10 10:09:10;;;;;;;3.63;2.53;;;34.70;99.90;;;;;;4144171;28;20559;-90
2023/09/10 10:11:11;;;;;;;3.67;2.30;;;34.10;99.90;;;;;;4131908;28;20177;-89
2023/09/10 10:13:14;;;;;;;5.45;2.45;;;34.10;99.90;;;;;;4132017;28;20204;-90
2023/09/10 10:15:16;;;;;;;3.95;2.33;;;33.70;99.90;;;;;;4132404;28;20180;-91
2023/09/10 10:17:19;;;;;;;5.13;2.22;;;33.50;99.90;;;;;;4148673;28;20192;-94
2023/09/10 10:19:21;;;;;;;4.07;2.28;;;33.10;99.90;;;;;;4148589;28;20177;-92
2023/09/10 10:21:23;;;;;;;4.20;2.40;;;33.30;99.90;;;;;;4132072;28;20189;-90
2023/09/10 10:23:23;;;;;;;10.45;2.35;;;33.60;99.90;;;;;;4132056;28;20623;-94
2023/09/10 10:25:25;;;;;;;4.22;2.00;;;33.30;99.90;;;;;;4148256;28;20272;-90
2023/09/10 10:27:28;;;;;;;5.03;2.13;;;33.60;99.90;;;;;;4148311;28;20183;-90
2023/09/10 10:29:28;;;;;;;4.85;2.58;;;33.50;99.90;;;;;;4148257;28;20193;-94
2023/09/10 10:31:32;;;;;;;4.55;2.28;;;33.40;99.90;;;;;;4135962;28;20219;-89
2023/09/10 10:33:36;;;;;;;7.35;1.95;;;33.30;99.90;;;;;;4154650;28;20259;-90